sensor_id;sensor_type;location;lat;lon;timestamp;P1;durP1;ratioP1;P2;durP2;ratioP2
9056;SDS011;4563;54.756;9.400;2023-05-10T00:02:00;0.87;;;0.87;;
9056;SDS011;4563;54.756;9.400;2023-05-10T00:04:27;4.00;;;1.10;;
9056;SDS011;4563;54.756;9.400;2023-05-10T00:06:54;1.13;;;1.03;;
9056;SDS011;4563;54.756;9.400;2023-05-10T00:09:22;1.33;;;1.00;;
9056;SDS011;4563;54.756;9.400;2023-05-10T00:11:49;1.00;;;0.90;;
9056;SDS011;4563;54.756;9.400;2023-05-10T00:14:16;6.00;;;0.90;;
9056;SDS011;4563;54.756;9.400;2023-05-10T00:16:43;3.70;;;1.10;;
9056;SDS011;4563;54.756;9.400;2023-05-10T00:19:10;3.77;;;0.90;;
9056;SDS011;4563;54.756;9.400;2023-05-10T00:21:37;1.57;;;0.90;;
9056;SDS011;4563;54.756;9.400;2023-05-10T00:24:05;1.30;;;1.10;;
9056;SDS011;4563;54.756;9.400;2023-05-10T00:26:33;1.33;;;0.90;;
9056;SDS011;4563;54.756;9.400;2023-05-10T00:29:00;1.80;;;0.90;;
9056;SDS011;4563;54.756;9.400;2023-05-10T00:31:27;7.07;;;0.83;;
9056;SDS011;4563;54.756;9.400;2023-05-10T00:33:54;7.53;;;0.90;;
9056;SDS011;4563;54.756;9.400;2023-05-10T00:36:21;3.13;;;1.00;;
9056;SDS011;4563;54.756;9.400;2023-05-10T00:38:48;1.40;;;0.93;;
9056;SDS011;4563;54.756;9.400;2023-05-10T00:41:15;0.70;;;0.70;;
9056;SDS011;4563;54.756;9.400;2023-05-10T00:43:43;3.87;;;0.97;;
9056;SDS011;4563;54.756;9.400;2023-05-10T00:46:10;2.60;;;0.80;;
9056;SDS011;4563;54.756;9.400;2023-05-10T00:48:39;1.23;;;0.90;;
9056;SDS011;4563;54.756;9.400;2023-05-10T00:51:06;5.10;;;1.13;;
9056;SDS011;4563;54.756;9.400;2023-05-10T00:53:34;4.63;;;1.07;;
9056;SDS011;4563;54.756;9.400;2023-05-10T00:56:01;2.63;;;0.93;;
9056;SDS011;4563;54.756;9.400;2023-05-10T00:58:28;1.20;;;1.10;;
9056;SDS011;4563;54.756;9.400;2023-05-10T01:00:57;1.10;;;1.10;;
9056;SDS011;4563;54.756;9.400;2023-05-10T01:03:25;3.67;;;0.90;;
9056;SDS011;4563;54.756;9.400;2023-05-10T01:05:52;5.70;;;1.27;;
9056;SDS011;4563;54.756;9.400;2023-05-10T01:08:19;3.33;;;1.17;;
9056;SDS011;4563;54.756;9.400;2023-05-10T01:10:47;1.33;;;1.17;;
9056;SDS011;4563;54.756;9.400;2023-05-10T01:13:16;2.47;;;0.93;;
9056;SDS011;4563;54.756;9.400;2023-05-10T01:15:53;2.37;;;0.90;;
9056;SDS011;4563;54.756;9.400;2023-05-10T01:18:22;1.77;;;1.00;;
9056;SDS011;4563;54.756;9.400;2023-05-10T01:20:53;2.30;;;1.07;;
9056;SDS011;4563;54.756;9.400;2023-05-10T01:23:32;4.80;;;1.00;;
9056;SDS011;4563;54.756;9.400;2023-05-10T01:26:26;1.63;;;1.00;;
9056;SDS011;4563;54.756;9.400;2023-05-10T01:29:38;3.10;;;1.00;;
9056;SDS011;4563;54.756;9.400;2023-05-10T01:32:25;7.13;;;1.17;;
9056;SDS011;4563;54.756;9.400;2023-05-10T01:34:59;5.33;;;0.87;;
9056;SDS011;4563;54.756;9.400;2023-05-10T01:37:31;2.33;;;0.93;;
9056;SDS011;4563;54.756;9.400;2023-05-10T01:40:08;2.93;;;1.10;;
9056;SDS011;4563;54.756;9.400;2023-05-10T01:42:45;2.00;;;1.10;;
9056;SDS011;4563;54.756;9.400;2023-05-10T01:45:18;4.43;;;1.33;;
9056;SDS011;4563;54.756;9.400;2023-05-10T01:47:53;3.33;;;1.10;;
9056;SDS011;4563;54.756;9.400;2023-05-10T01:50:27;2.93;;;0.80;;
9056;SDS011;4563;54.756;9.400;2023-05-10T01:52:57;2.70;;;1.00;;
9056;SDS011;4563;54.756;9.400;2023-05-10T01:55:27;1.43;;;1.10;;
9056;SDS011;4563;54.756;9.400;2023-05-10T01:57:58;3.93;;;1.20;;
9056;SDS011;4563;54.756;9.400;2023-05-10T02:00:28;1.47;;;1.00;;
9056;SDS011;4563;54.756;9.400;2023-05-10T02:02:57;8.03;;;1.40;;
9056;SDS011;4563;54.756;9.400;2023-05-10T02:05:28;1.60;;;1.13;;
9056;SDS011;4563;54.756;9.400;2023-05-10T02:07:58;1.63;;;1.40;;
9056;SDS011;4563;54.756;9.400;2023-05-10T02:10:27;3.50;;;1.10;;
9056;SDS011;4563;54.756;9.400;2023-05-10T02:12:54;2.97;;;1.60;;
9056;SDS011;4563;54.756;9.400;2023-05-10T02:15:24;2.10;;;1.10;;
9056;SDS011;4563;54.756;9.400;2023-05-10T02:17:53;8.00;;;1.20;;
9056;SDS011;4563;54.756;9.400;2023-05-10T02:20:23;3.10;;;1.20;;
9056;SDS011;4563;54.756;9.400;2023-05-10T02:22:52;5.20;;;1.23;;
9056;SDS011;4563;54.756;9.400;2023-05-10T02:25:21;4.43;;;1.13;;
9056;SDS011;4563;54.756;9.400;2023-05-10T02:27:49;1.53;;;1.00;;
9056;SDS011;4563;54.756;9.400;2023-05-10T02:30:17;3.60;;;1.50;;
9056;SDS011;4563;54.756;9.400;2023-05-10T02:32:47;2.60;;;1.27;;
9056;SDS011;4563;54.756;9.400;2023-05-10T02:35:15;3.87;;;1.10;;
9056;SDS011;4563;54.756;9.400;2023-05-10T02:37:44;4.97;;;1.83;;
9056;SDS011;4563;54.756;9.400;2023-05-10T02:40:12;2.00;;;1.10;;
9056;SDS011;4563;54.756;9.400;2023-05-10T02:42:42;8.37;;;1.37;;
9056;SDS011;4563;54.756;9.400;2023-05-10T02:45:12;2.40;;;1.17;;
9056;SDS011;4563;54.756;9.400;2023-05-10T02:47:43;4.67;;;1.40;;
9056;SDS011;4563;54.756;9.400;2023-05-10T02:50:10;3.80;;;1.33;;
9056;SDS011;4563;54.756;9.400;2023-05-10T02:52:39;1.57;;;1.20;;
9056;SDS011;4563;54.756;9.400;2023-05-10T02:55:11;7.47;;;1.57;;
9056;SDS011;4563;54.756;9.400;2023-05-10T02:57:41;2.37;;;1.17;;
9056;SDS011;4563;54.756;9.400;2023-05-10T03:00:13;4.57;;;1.67;;
9056;SDS011;4563;54.756;9.400;2023-05-10T03:02:40;3.03;;;1.30;;
9056;SDS011;4563;54.756;9.400;2023-05-10T03:05:07;4.00;;;1.30;;
9056;SDS011;4563;54.756;9.400;2023-05-10T03:07:35;5.17;;;1.43;;
9056;SDS011;4563;54.756;9.400;2023-05-10T03:10:02;2.97;;;1.30;;
9056;SDS011;4563;54.756;9.400;2023-05-10T03:12:33;12.43;;;1.37;;
9056;SDS011;4563;54.756;9.400;2023-05-10T03:15:13;4.43;;;1.40;;
9056;SDS011;4563;54.756;9.400;2023-05-10T03:17:46;1.93;;;1.40;;
9056;SDS011;4563;54.756;9.400;2023-05-10T03:20:20;6.87;;;1.60;;
9056;SDS011;4563;54.756;9.400;2023-05-10T03:22:50;2.40;;;1.63;;
9056;SDS011;4563;54.756;9.400;2023-05-10T03:25:21;6.57;;;1.87;;
9056;SDS011;4563;54.756;9.400;2023-05-10T03:27:51;3.93;;;1.67;;
9056;SDS011;4563;54.756;9.400;2023-05-10T03:30:18;7.77;;;1.73;;
9056;SDS011;4563;54.756;9.400;2023-05-10T03:32:46;5.07;;;1.73;;
9056;SDS011;4563;54.756;9.400;2023-05-10T03:35:13;2.33;;;1.50;;
9056;SDS011;4563;54.756;9.400;2023-05-10T03:37:40;4.13;;;1.60;;
9056;SDS011;4563;54.756;9.400;2023-05-10T03:40:07;3.63;;;1.67;;
9056;SDS011;4563;54.756;9.400;2023-05-10T03:42:35;4.63;;;1.73;;
9056;SDS011;4563;54.756;9.400;2023-05-10T03:45:03;7.03;;;1.87;;
9056;SDS011;4563;54.756;9.400;2023-05-10T03:47:31;5.63;;;1.60;;
9056;SDS011;4563;54.756;9.400;2023-05-10T03:49:58;7.63;;;2.37;;
9056;SDS011;4563;54.756;9.400;2023-05-10T03:52:25;7.47;;;1.80;;
9056;SDS011;4563;54.756;9.400;2023-05-10T03:54:57;3.47;;;1.43;;
9056;SDS011;4563;54.756;9.400;2023-05-10T03:57:27;4.90;;;2.10;;
9056;SDS011;4563;54.756;9.400;2023-05-10T03:59:54;7.27;;;1.57;;
9056;SDS011;4563;54.756;9.400;2023-05-10T04:02:22;2.23;;;1.30;;
9056;SDS011;4563;54.756;9.400;2023-05-10T04:04:51;5.07;;;1.30;;
9056;SDS011;4563;54.756;9.400;2023-05-10T04:07:18;9.23;;;2.17;;
9056;SDS011;4563;54.756;9.400;2023-05-10T04:09:45;4.23;;;1.53;;
9056;SDS011;4563;54.756;9.400;2023-05-10T04:12:13;9.30;;;1.80;;
9056;SDS011;4563;54.756;9.400;2023-05-10T04:14:52;5.03;;;1.30;;
9056;SDS011;4563;54.756;9.400;2023-05-10T04:17:33;9.53;;;1.80;;
9056;SDS011;4563;54.756;9.400;2023-05-10T04:20:01;3.73;;;1.40;;
9056;SDS011;4563;54.756;9.400;2023-05-10T04:22:31;3.80;;;1.60;;
9056;SDS011;4563;54.756;9.400;2023-05-10T04:24:59;5.50;;;1.90;;
9056;SDS011;4563;54.756;9.400;2023-05-10T04:27:26;3.07;;;1.80;;
9056;SDS011;4563;54.756;9.400;2023-05-10T04:29:53;2.77;;;1.87;;
9056;SDS011;4563;54.756;9.400;2023-05-10T04:32:20;1.67;;;1.47;;
9056;SDS011;4563;54.756;9.400;2023-05-10T04:34:50;3.50;;;1.60;;
9056;SDS011;4563;54.756;9.400;2023-05-10T04:37:18;4.33;;;1.63;;
9056;SDS011;4563;54.756;9.400;2023-05-10T04:39:46;9.73;;;1.90;;
9056;SDS011;4563;54.756;9.400;2023-05-10T04:42:13;7.20;;;2.00;;
9056;SDS011;4563;54.756;9.400;2023-05-10T04:44:41;2.50;;;1.83;;
9056;SDS011;4563;54.756;9.400;2023-05-10T04:47:08;2.50;;;1.40;;
9056;SDS011;4563;54.756;9.400;2023-05-10T04:49:37;8.80;;;1.83;;
9056;SDS011;4563;54.756;9.400;2023-05-10T04:52:06;11.57;;;1.80;;
9056;SDS011;4563;54.756;9.400;2023-05-10T04:54:33;2.90;;;1.30;;
9056;SDS011;4563;54.756;9.400;2023-05-10T04:57:00;5.43;;;1.60;;
9056;SDS011;4563;54.756;9.400;2023-05-10T04:59:27;2.17;;;1.40;;
9056;SDS011;4563;54.756;9.400;2023-05-10T05:01:54;5.87;;;1.17;;
9056;SDS011;4563;54.756;9.400;2023-05-10T05:04:21;7.27;;;1.43;;
9056;SDS011;4563;54.756;9.400;2023-05-10T05:06:49;4.37;;;1.80;;
9056;SDS011;4563;54.756;9.400;2023-05-10T05:09:18;1.97;;;1.57;;
9056;SDS011;4563;54.756;9.400;2023-05-10T05:11:45;11.20;;;1.23;;
9056;SDS011;4563;54.756;9.400;2023-05-10T05:14:11;3.53;;;1.73;;
9056;SDS011;4563;54.756;9.400;2023-05-10T05:16:38;4.50;;;1.83;;
9056;SDS011;4563;54.756;9.400;2023-05-10T05:19:05;2.30;;;1.73;;
9056;SDS011;4563;54.756;9.400;2023-05-10T05:21:32;3.47;;;1.50;;
9056;SDS011;4563;54.756;9.400;2023-05-10T05:24:00;3.17;;;1.40;;
9056;SDS011;4563;54.756;9.400;2023-05-10T05:26:28;2.67;;;1.40;;
9056;SDS011;4563;54.756;9.400;2023-05-10T05:28:55;1.87;;;1.40;;
9056;SDS011;4563;54.756;9.400;2023-05-10T05:31:23;1.80;;;1.43;;
9056;SDS011;4563;54.756;9.400;2023-05-10T05:33:50;2.10;;;1.60;;
9056;SDS011;4563;54.756;9.400;2023-05-10T05:36:17;2.30;;;1.50;;
9056;SDS011;4563;54.756;9.400;2023-05-10T05:38:44;3.17;;;1.30;;
9056;SDS011;4563;54.756;9.400;2023-05-10T05:41:11;6.80;;;2.23;;
9056;SDS011;4563;54.756;9.400;2023-05-10T05:43:39;2.03;;;1.40;;
9056;SDS011;4563;54.756;9.400;2023-05-10T05:46:06;9.10;;;1.30;;
9056;SDS011;4563;54.756;9.400;2023-05-10T05:48:33;2.87;;;1.60;;
9056;SDS011;4563;54.756;9.400;2023-05-10T05:51:00;3.37;;;1.50;;
9056;SDS011;4563;54.756;9.400;2023-05-10T05:53:27;3.33;;;1.30;;
9056;SDS011;4563;54.756;9.400;2023-05-10T05:55:54;2.40;;;1.43;;
9056;SDS011;4563;54.756;9.400;2023-05-10T05:58:22;2.27;;;1.47;;
9056;SDS011;4563;54.756;9.400;2023-05-10T06:00:51;4.27;;;1.60;;
9056;SDS011;4563;54.756;9.400;2023-05-10T06:03:18;7.40;;;1.77;;
9056;SDS011;4563;54.756;9.400;2023-05-10T06:05:45;4.73;;;1.63;;
9056;SDS011;4563;54.756;9.400;2023-05-10T06:08:13;3.13;;;2.20;;
9056;SDS011;4563;54.756;9.400;2023-05-10T06:10:39;3.00;;;1.80;;
9056;SDS011;4563;54.756;9.400;2023-05-10T06:13:07;3.63;;;1.93;;
9056;SDS011;4563;54.756;9.400;2023-05-10T06:15:34;3.27;;;1.33;;
9056;SDS011;4563;54.756;9.400;2023-05-10T06:18:02;2.63;;;1.10;;
9056;SDS011;4563;54.756;9.400;2023-05-10T06:20:29;1.83;;;1.50;;
9056;SDS011;4563;54.756;9.400;2023-05-10T06:22:56;2.47;;;1.50;;
9056;SDS011;4563;54.756;9.400;2023-05-10T06:25:23;5.23;;;1.60;;
9056;SDS011;4563;54.756;9.400;2023-05-10T06:27:50;2.40;;;1.67;;
9056;SDS011;4563;54.756;9.400;2023-05-10T06:30:21;7.47;;;1.60;;
9056;SDS011;4563;54.756;9.400;2023-05-10T06:32:53;3.83;;;1.50;;
9056;SDS011;4563;54.756;9.400;2023-05-10T06:35:22;2.70;;;1.80;;
9056;SDS011;4563;54.756;9.400;2023-05-10T06:37:49;1.60;;;1.50;;
9056;SDS011;4563;54.756;9.400;2023-05-10T06:40:16;5.73;;;1.67;;
9056;SDS011;4563;54.756;9.400;2023-05-10T06:42:44;3.93;;;1.70;;
9056;SDS011;4563;54.756;9.400;2023-05-10T06:45:11;2.53;;;1.63;;
9056;SDS011;4563;54.756;9.400;2023-05-10T06:47:39;3.33;;;2.13;;
9056;SDS011;4563;54.756;9.400;2023-05-10T06:50:06;3.40;;;1.50;;
9056;SDS011;4563;54.756;9.400;2023-05-10T06:52:35;1.83;;;1.50;;
9056;SDS011;4563;54.756;9.400;2023-05-10T06:55:02;3.40;;;1.40;;
9056;SDS011;4563;54.756;9.400;2023-05-10T06:57:29;4.10;;;1.40;;
9056;SDS011;4563;54.756;9.400;2023-05-10T06:59:58;4.47;;;1.90;;
9056;SDS011;4563;54.756;9.400;2023-05-10T07:02:55;11.47;;;2.10;;
9056;SDS011;4563;54.756;9.400;2023-05-10T07:05:31;5.83;;;1.47;;
9056;SDS011;4563;54.756;9.400;2023-05-10T07:07:59;6.70;;;2.43;;
9056;SDS011;4563;54.756;9.400;2023-05-10T07:10:35;1.77;;;1.67;;
9056;SDS011;4563;54.756;9.400;2023-05-10T07:13:10;1.93;;;1.50;;
9056;SDS011;4563;54.756;9.400;2023-05-10T07:15:52;2.53;;;1.63;;
9056;SDS011;4563;54.756;9.400;2023-05-10T07:18:19;1.90;;;1.80;;
9056;SDS011;4563;54.756;9.400;2023-05-10T07:20:59;1.87;;;1.73;;
9056;SDS011;4563;54.756;9.400;2023-05-10T07:46:35;8.00;;;1.70;;
9056;SDS011;4563;54.756;9.400;2023-05-10T07:49:01;3.53;;;1.87;;
9056;SDS011;4563;54.756;9.400;2023-05-10T07:51:31;2.13;;;1.73;;
9056;SDS011;4563;54.756;9.400;2023-05-10T07:53:58;3.30;;;2.10;;
9056;SDS011;4563;54.756;9.400;2023-05-10T07:56:25;1.50;;;1.43;;
9056;SDS011;4563;54.756;9.400;2023-05-10T07:58:54;2.87;;;1.70;;
9056;SDS011;4563;54.756;9.400;2023-05-10T08:01:21;1.77;;;1.60;;
9056;SDS011;4563;54.756;9.400;2023-05-10T08:03:50;6.47;;;1.43;;
9056;SDS011;4563;54.756;9.400;2023-05-10T08:06:18;2.50;;;1.70;;
9056;SDS011;4563;54.756;9.400;2023-05-10T08:08:45;5.17;;;1.80;;
9056;SDS011;4563;54.756;9.400;2023-05-10T08:11:14;6.53;;;1.80;;
9056;SDS011;4563;54.756;9.400;2023-05-10T08:13:41;2.47;;;1.97;;
9056;SDS011;4563;54.756;9.400;2023-05-10T08:16:08;5.87;;;1.90;;
9056;SDS011;4563;54.756;9.400;2023-05-10T08:18:37;5.53;;;1.70;;
9056;SDS011;4563;54.756;9.400;2023-05-10T08:21:06;4.73;;;1.80;;
9056;SDS011;4563;54.756;9.400;2023-05-10T08:23:34;2.40;;;1.70;;
9056;SDS011;4563;54.756;9.400;2023-05-10T08:26:00;1.77;;;1.67;;
9056;SDS011;4563;54.756;9.400;2023-05-10T08:28:27;2.80;;;1.57;;
9056;SDS011;4563;54.756;9.400;2023-05-10T08:30:54;1.50;;;1.40;;
9056;SDS011;4563;54.756;9.400;2023-05-10T08:33:21;5.37;;;1.80;;
9056;SDS011;4563;54.756;9.400;2023-05-10T08:35:48;6.20;;;1.77;;
9056;SDS011;4563;54.756;9.400;2023-05-10T08:38:17;1.73;;;1.63;;
9056;SDS011;4563;54.756;9.400;2023-05-10T08:40:44;4.47;;;1.70;;
9056;SDS011;4563;54.756;9.400;2023-05-10T08:43:12;3.07;;;1.80;;
9056;SDS011;4563;54.756;9.400;2023-05-10T08:45:40;5.47;;;1.70;;
9056;SDS011;4563;54.756;9.400;2023-05-10T08:48:08;6.23;;;2.10;;
9056;SDS011;4563;54.756;9.400;2023-05-10T08:50:36;2.53;;;1.77;;
9056;SDS011;4563;54.756;9.400;2023-05-10T08:53:04;6.30;;;2.00;;
9056;SDS011;4563;54.756;9.400;2023-05-10T08:55:36;6.43;;;1.70;;
9056;SDS011;4563;54.756;9.400;2023-05-10T08:58:05;2.20;;;2.00;;
9056;SDS011;4563;54.756;9.400;2023-05-10T09:00:32;2.47;;;1.90;;
9056;SDS011;4563;54.756;9.400;2023-05-10T09:03:02;3.03;;;1.70;;
9056;SDS011;4563;54.756;9.400;2023-05-10T09:05:30;4.72;;;1.70;;
9056;SDS011;4563;54.756;9.400;2023-05-10T09:07:57;4.65;;;1.60;;
9056;SDS011;4563;54.756;9.400;2023-05-10T09:10:25;11.20;;;1.73;;
9056;SDS011;4563;54.756;9.400;2023-05-10T09:12:54;3.15;;;1.60;;
9056;SDS011;4563;54.756;9.400;2023-05-10T09:15:22;4.05;;;1.55;;
9056;SDS011;4563;54.756;9.400;2023-05-10T09:17:49;2.53;;;2.33;;
9056;SDS011;4563;54.756;9.400;2023-05-10T09:20:16;4.18;;;1.90;;
9056;SDS011;4563;54.756;9.400;2023-05-10T09:22:43;2.50;;;2.25;;
9056;SDS011;4563;54.756;9.400;2023-05-10T09:25:11;5.75;;;1.63;;
9056;SDS011;4563;54.756;9.400;2023-05-10T09:27:40;1.98;;;1.83;;
9056;SDS011;4563;54.756;9.400;2023-05-10T09:30:15;7.43;;;2.47;;
9056;SDS011;4563;54.756;9.400;2023-05-10T09:32:43;3.42;;;3.13;;
9056;SDS011;4563;54.756;9.400;2023-05-10T09:35:11;2.83;;;2.03;;
9056;SDS011;4563;54.756;9.400;2023-05-10T09:37:39;3.10;;;2.00;;
9056;SDS011;4563;54.756;9.400;2023-05-10T09:40:08;2.20;;;1.73;;
9056;SDS011;4563;54.756;9.400;2023-05-10T09:42:38;5.90;;;2.10;;
9056;SDS011;4563;54.756;9.400;2023-05-10T09:45:06;4.18;;;2.72;;
9056;SDS011;4563;54.756;9.400;2023-05-10T09:47:37;17.23;;;5.10;;
9056;SDS011;4563;54.756;9.400;2023-05-10T09:50:05;3.47;;;1.73;;
9056;SDS011;4563;54.756;9.400;2023-05-10T09:52:45;6.00;;;1.98;;
9056;SDS011;4563;54.756;9.400;2023-05-10T09:55:13;5.70;;;2.00;;
9056;SDS011;4563;54.756;9.400;2023-05-10T09:57:40;4.20;;;2.08;;
9056;SDS011;4563;54.756;9.400;2023-05-10T10:00:07;4.60;;;2.13;;
9056;SDS011;4563;54.756;9.400;2023-05-10T10:02:35;3.30;;;2.35;;
9056;SDS011;4563;54.756;9.400;2023-05-10T10:05:05;5.20;;;2.10;;
9056;SDS011;4563;54.756;9.400;2023-05-10T10:07:33;9.43;;;1.88;;
9056;SDS011;4563;54.756;9.400;2023-05-10T10:10:00;2.95;;;1.98;;
9056;SDS011;4563;54.756;9.400;2023-05-10T10:12:29;3.17;;;1.80;;
9056;SDS011;4563;54.756;9.400;2023-05-10T10:14:57;3.90;;;2.28;;
9056;SDS011;4563;54.756;9.400;2023-05-10T10:17:26;3.40;;;2.58;;
9056;SDS011;4563;54.756;9.400;2023-05-10T10:19:55;11.50;;;2.20;;
9056;SDS011;4563;54.756;9.400;2023-05-10T10:22:23;10.52;;;1.90;;
9056;SDS011;4563;54.756;9.400;2023-05-10T10:24:50;6.05;;;2.60;;
9056;SDS011;4563;54.756;9.400;2023-05-10T10:27:19;2.55;;;2.00;;
9056;SDS011;4563;54.756;9.400;2023-05-10T10:29:55;3.80;;;1.77;;
9056;SDS011;4563;54.756;9.400;2023-05-10T10:32:37;3.80;;;2.05;;
9056;SDS011;4563;54.756;9.400;2023-05-10T10:35:23;5.68;;;2.28;;
9056;SDS011;4563;54.756;9.400;2023-05-10T10:37:50;4.80;;;2.55;;
9056;SDS011;4563;54.756;9.400;2023-05-10T10:40:24;2.03;;;1.88;;
9056;SDS011;4563;54.756;9.400;2023-05-10T10:42:52;2.22;;;1.95;;
9056;SDS011;4563;54.756;9.400;2023-05-10T10:45:20;2.87;;;2.40;;
9056;SDS011;4563;54.756;9.400;2023-05-10T10:47:48;5.67;;;2.23;;
9056;SDS011;4563;54.756;9.400;2023-05-10T10:50:16;2.50;;;1.93;;
9056;SDS011;4563;54.756;9.400;2023-05-10T10:52:47;2.97;;;2.77;;
9056;SDS011;4563;54.756;9.400;2023-05-10T10:55:17;2.40;;;2.20;;
9056;SDS011;4563;54.756;9.400;2023-05-10T10:57:48;5.73;;;5.33;;
9056;SDS011;4563;54.756;9.400;2023-05-10T11:00:23;9.00;;;2.53;;
9056;SDS011;4563;54.756;9.400;2023-05-10T11:02:52;2.80;;;2.60;;
9056;SDS011;4563;54.756;9.400;2023-05-10T11:05:24;2.70;;;2.50;;
9056;SDS011;4563;54.756;9.400;2023-05-10T11:08:14;4.70;;;2.33;;
9056;SDS011;4563;54.756;9.400;2023-05-10T11:10:50;2.80;;;2.20;;
9056;SDS011;4563;54.756;9.400;2023-05-10T11:13:29;4.60;;;2.30;;
9056;SDS011;4563;54.756;9.400;2023-05-10T11:15:58;2.30;;;2.20;;
9056;SDS011;4563;54.756;9.400;2023-05-10T11:18:36;2.83;;;2.57;;
9056;SDS011;4563;54.756;9.400;2023-05-10T11:21:03;3.83;;;2.50;;
9056;SDS011;4563;54.756;9.400;2023-05-10T11:23:32;2.57;;;2.37;;
9056;SDS011;4563;54.756;9.400;2023-05-10T11:26:14;2.33;;;2.13;;
9056;SDS011;4563;54.756;9.400;2023-05-10T11:28:41;2.23;;;2.10;;
9056;SDS011;4563;54.756;9.400;2023-05-10T11:31:09;5.80;;;2.20;;
9056;SDS011;4563;54.756;9.400;2023-05-10T11:33:42;4.80;;;2.40;;
9056;SDS011;4563;54.756;9.400;2023-05-10T11:36:10;2.43;;;2.20;;
9056;SDS011;4563;54.756;9.400;2023-05-10T11:38:39;3.07;;;2.57;;
9056;SDS011;4563;54.756;9.400;2023-05-10T11:41:08;2.63;;;2.47;;
9056;SDS011;4563;54.756;9.400;2023-05-10T11:43:36;2.70;;;2.30;;
9056;SDS011;4563;54.756;9.400;2023-05-10T11:46:04;2.43;;;2.23;;
9056;SDS011;4563;54.756;9.400;2023-05-10T11:48:32;3.23;;;2.30;;
9056;SDS011;4563;54.756;9.400;2023-05-10T11:50:59;2.87;;;2.67;;
9056;SDS011;4563;54.756;9.400;2023-05-10T11:53:27;4.57;;;2.30;;
9056;SDS011;4563;54.756;9.400;2023-05-10T11:55:58;4.27;;;2.57;;
9056;SDS011;4563;54.756;9.400;2023-05-10T11:58:30;8.73;;;2.30;;
9056;SDS011;4563;54.756;9.400;2023-05-10T12:00:58;2.10;;;2.00;;
9056;SDS011;4563;54.756;9.400;2023-05-10T12:03:25;2.63;;;2.43;;
9056;SDS011;4563;54.756;9.400;2023-05-10T12:05:53;6.10;;;2.70;;
9056;SDS011;4563;54.756;9.400;2023-05-10T12:08:20;3.13;;;2.50;;
9056;SDS011;4563;54.756;9.400;2023-05-10T12:10:48;2.63;;;2.40;;
9056;SDS011;4563;54.756;9.400;2023-05-10T12:13:18;2.47;;;2.37;;
9056;SDS011;4563;54.756;9.400;2023-05-10T12:15:46;4.43;;;2.80;;
9056;SDS011;4563;54.756;9.400;2023-05-10T12:18:13;2.57;;;2.40;;
9056;SDS011;4563;54.756;9.400;2023-05-10T12:20:40;6.43;;;4.57;;
9056;SDS011;4563;54.756;9.400;2023-05-10T12:23:08;4.43;;;3.37;;
9056;SDS011;4563;54.756;9.400;2023-05-10T12:25:36;4.67;;;4.10;;
9056;SDS011;4563;54.756;9.400;2023-05-10T12:28:05;3.67;;;3.47;;
9056;SDS011;4563;54.756;9.400;2023-05-10T12:30:36;3.30;;;3.00;;
9056;SDS011;4563;54.756;9.400;2023-05-10T12:33:07;4.20;;;3.03;;
9056;SDS011;4563;54.756;9.400;2023-05-10T12:35:43;3.87;;;3.57;;
9056;SDS011;4563;54.756;9.400;2023-05-10T12:38:26;3.77;;;3.57;;
9056;SDS011;4563;54.756;9.400;2023-05-10T12:40:55;4.03;;;3.50;;
9056;SDS011;4563;54.756;9.400;2023-05-10T12:43:24;3.83;;;3.53;;
9056;SDS011;4563;54.756;9.400;2023-05-10T12:45:52;4.57;;;3.60;;
9056;SDS011;4563;54.756;9.400;2023-05-10T12:48:20;3.97;;;3.63;;
9056;SDS011;4563;54.756;9.400;2023-05-10T12:50:46;4.43;;;4.03;;
9056;SDS011;4563;54.756;9.400;2023-05-10T12:53:14;5.80;;;3.93;;
9056;SDS011;4563;54.756;9.400;2023-05-10T12:55:44;4.30;;;4.00;;
9056;SDS011;4563;54.756;9.400;2023-05-10T12:58:11;7.70;;;4.80;;
9056;SDS011;4563;54.756;9.400;2023-05-10T13:00:37;5.33;;;4.23;;
9056;SDS011;4563;54.756;9.400;2023-05-10T13:03:06;5.50;;;4.23;;
9056;SDS011;4563;54.756;9.400;2023-05-10T13:05:33;4.80;;;3.93;;
9056;SDS011;4563;54.756;9.400;2023-05-10T13:08:00;6.27;;;4.50;;
9056;SDS011;4563;54.756;9.400;2023-05-10T13:10:28;5.20;;;4.77;;
9056;SDS011;4563;54.756;9.400;2023-05-10T13:12:55;5.07;;;4.37;;
9056;SDS011;4563;54.756;9.400;2023-05-10T13:15:22;5.00;;;4.57;;
9056;SDS011;4563;54.756;9.400;2023-05-10T13:17:49;5.33;;;4.93;;
9056;SDS011;4563;54.756;9.400;2023-05-10T13:20:17;6.67;;;5.30;;
9056;SDS011;4563;54.756;9.400;2023-05-10T13:22:44;5.57;;;5.03;;
9056;SDS011;4563;54.756;9.400;2023-05-10T13:25:11;6.33;;;4.80;;
9056;SDS011;4563;54.756;9.400;2023-05-10T13:27:39;5.43;;;4.43;;
9056;SDS011;4563;54.756;9.400;2023-05-10T13:30:07;6.70;;;5.00;;
9056;SDS011;4563;54.756;9.400;2023-05-10T13:32:34;5.50;;;5.10;;
9056;SDS011;4563;54.756;9.400;2023-05-10T13:35:02;5.43;;;4.93;;
9056;SDS011;4563;54.756;9.400;2023-05-10T13:37:31;5.43;;;4.93;;
9056;SDS011;4563;54.756;9.400;2023-05-10T13:40:00;5.77;;;5.37;;
9056;SDS011;4563;54.756;9.400;2023-05-10T13:42:27;5.33;;;4.87;;
9056;SDS011;4563;54.756;9.400;2023-05-10T13:44:54;6.20;;;5.47;;
9056;SDS011;4563;54.756;9.400;2023-05-10T13:47:21;6.27;;;5.63;;
9056;SDS011;4563;54.756;9.400;2023-05-10T13:49:48;5.90;;;5.43;;
9056;SDS011;4563;54.756;9.400;2023-05-10T13:52:15;10.40;;;5.37;;
9056;SDS011;4563;54.756;9.400;2023-05-10T13:54:43;7.33;;;5.33;;
9056;SDS011;4563;54.756;9.400;2023-05-10T13:57:11;5.87;;;5.20;;
9056;SDS011;4563;54.756;9.400;2023-05-10T13:59:39;6.93;;;6.33;;
9056;SDS011;4563;54.756;9.400;2023-05-10T14:02:06;6.10;;;5.67;;
9056;SDS011;4563;54.756;9.400;2023-05-10T14:04:33;6.77;;;5.83;;
9056;SDS011;4563;54.756;9.400;2023-05-10T14:07:00;6.83;;;6.10;;
9056;SDS011;4563;54.756;9.400;2023-05-10T14:09:29;5.87;;;5.33;;
9056;SDS011;4563;54.756;9.400;2023-05-10T14:11:57;5.63;;;5.23;;
9056;SDS011;4563;54.756;9.400;2023-05-10T14:14:24;6.63;;;6.03;;
9056;SDS011;4563;54.756;9.400;2023-05-10T14:16:51;8.47;;;5.73;;
9056;SDS011;4563;54.756;9.400;2023-05-10T14:19:18;5.57;;;5.17;;
9056;SDS011;4563;54.756;9.400;2023-05-10T14:21:45;5.63;;;5.13;;
9056;SDS011;4563;54.756;9.400;2023-05-10T14:24:13;5.23;;;4.83;;
9056;SDS011;4563;54.756;9.400;2023-05-10T14:26:40;6.23;;;5.67;;
9056;SDS011;4563;54.756;9.400;2023-05-10T14:29:08;6.83;;;5.40;;
9056;SDS011;4563;54.756;9.400;2023-05-10T14:31:35;5.47;;;5.03;;
9056;SDS011;4563;54.756;9.400;2023-05-10T14:34:01;10.10;;;5.73;;
9056;SDS011;4563;54.756;9.400;2023-05-10T14:36:28;15.20;;;10.17;;
9056;SDS011;4563;54.756;9.400;2023-05-10T14:38:55;7.50;;;5.90;;
9056;SDS011;4563;54.756;9.400;2023-05-10T14:41:22;6.20;;;5.20;;
9056;SDS011;4563;54.756;9.400;2023-05-10T14:43:49;6.23;;;5.63;;
9056;SDS011;4563;54.756;9.400;2023-05-10T14:46:17;7.03;;;5.30;;
9056;SDS011;4563;54.756;9.400;2023-05-10T14:48:44;5.83;;;5.33;;
9056;SDS011;4563;54.756;9.400;2023-05-10T14:51:11;6.40;;;5.73;;
9056;SDS011;4563;54.756;9.400;2023-05-10T14:53:42;6.10;;;5.13;;
9056;SDS011;4563;54.756;9.400;2023-05-10T14:56:09;10.73;;;4.97;;
9056;SDS011;4563;54.756;9.400;2023-05-10T14:58:35;5.23;;;4.83;;
9056;SDS011;4563;54.756;9.400;2023-05-10T15:01:02;8.10;;;5.27;;
9056;SDS011;4563;54.756;9.400;2023-05-10T15:03:31;6.20;;;5.70;;
9056;SDS011;4563;54.756;9.400;2023-05-10T15:05:58;5.83;;;5.23;;
9056;SDS011;4563;54.756;9.400;2023-05-10T15:08:24;19.63;;;6.63;;
9056;SDS011;4563;54.756;9.400;2023-05-10T15:10:51;6.83;;;6.13;;
9056;SDS011;4563;54.756;9.400;2023-05-10T15:13:20;6.87;;;6.17;;
9056;SDS011;4563;54.756;9.400;2023-05-10T15:15:47;6.97;;;6.10;;
9056;SDS011;4563;54.756;9.400;2023-05-10T15:18:14;5.73;;;5.30;;
9056;SDS011;4563;54.756;9.400;2023-05-10T15:20:42;6.00;;;5.47;;
9056;SDS011;4563;54.756;9.400;2023-05-10T15:23:09;7.10;;;5.97;;
9056;SDS011;4563;54.756;9.400;2023-05-10T15:25:36;6.10;;;5.63;;
9056;SDS011;4563;54.756;9.400;2023-05-10T15:28:03;6.00;;;5.50;;
9056;SDS011;4563;54.756;9.400;2023-05-10T15:30:30;6.67;;;5.80;;
9056;SDS011;4563;54.756;9.400;2023-05-10T15:32:57;9.90;;;5.97;;
9056;SDS011;4563;54.756;9.400;2023-05-10T15:35:25;6.43;;;5.83;;
9056;SDS011;4563;54.756;9.400;2023-05-10T15:37:53;7.77;;;6.07;;
9056;SDS011;4563;54.756;9.400;2023-05-10T15:40:20;7.93;;;5.50;;
9056;SDS011;4563;54.756;9.400;2023-05-10T15:42:50;6.97;;;5.60;;
9056;SDS011;4563;54.756;9.400;2023-05-10T15:45:17;8.20;;;5.53;;
9056;SDS011;4563;54.756;9.400;2023-05-10T15:47:44;6.47;;;5.97;;
9056;SDS011;4563;54.756;9.400;2023-05-10T15:50:11;7.90;;;6.67;;